SAWU/RZA METAR and TAF weather

Enter ICAO airport designator
Station Type Date Time Source
SAWU METAR 2019/10/17 17:00 UTC NOAA

SAWU 171700Z 29015KT 80009999N 8000W VCSH SCT030 FEW200 17/M01 Q1008


Station Type Date Time Source
SAWU Decoded METAR 2019/10/17 17:00 UTC NOAA

Santa Cruz Aerodrome, Argentina (SAWU) 50-01S 068-34W 111M
Oct 17, 2019 - 01:00 PM EDT / 2019.10.17 1700 UTC
Wind: from the WNW (290 degrees) at 17 MPH (15 KT):0
Visibility: 4 mile(s):0
Sky conditions: partly cloudy
Weather: showers in the vicinity
Temperature: 62 F (17 C)
Dew Point: 30 F (-1 C)
Relative Humidity: 29%
Pressure (altimeter): 29.77 in. Hg (1008 hPa)
ob: SAWU 171700Z 29015KT 80009999N 8000W VCSH SCT030 FEW200 17/M01 Q1008
cycle: 17

Station Type Date Time Source
SAWU TAF UTC NOAA

Error!

Example: see airport list